Time;durP1;ratioP1;P1;durP2;ratioP2;P2;SDS_P1;SDS_P2;PMS_P1;PMS_P2;Temp;Humidity;BMP_temperature;BMP_pressure;BME280_temperature;BME280_humidity;BME280_pressure;Samples;Min_cycle;Max_cycle;Signal;HPM_P1;HPM_P2
2022/08/04 00:01:39;;;;;;;11.60;6.40;;;;;;;21.44;86.80;101168.88;5070997;28;20027;-70
2022/08/04 00:04:23;;;;;;;11.40;6.68;;;;;;;21.36;87.65;101160.38;5071902;28;20038;-70
2022/08/04 00:07:06;;;;;;;10.38;5.78;;;;;;;21.35;86.33;101158.72;5072017;28;20031;-70
2022/08/04 00:09:35;;;;;;;11.32;5.57;;;;;;;21.30;87.38;101153.28;5071722;28;20020;-70
2022/08/04 00:12:02;;;;;;;12.02;6.65;;;;;;;21.26;87.09;101153.00;5071999;28;20025;-70
2022/08/04 00:14:33;;;;;;;16.70;7.43;;;;;;;21.23;87.94;101148.91;5071828;28;20025;-70
2022/08/04 00:17:01;;;;;;;12.20;6.45;;;;;;;21.23;88.15;101153.50;5071943;28;20036;-70
2022/08/04 00:19:39;;;;;;;13.10;6.18;;;;;;;21.18;87.37;101151.56;5071876;28;20113;-70
2022/08/04 00:22:08;;;;;;;8.80;5.35;;;;;;;21.09;86.76;101153.16;5071816;28;20073;-70
2022/08/04 00:24:34;;;;;;;12.00;6.30;;;;;;;21.08;86.72;101148.78;5071625;28;20059;-70
2022/08/04 00:27:00;;;;;;;11.55;6.43;;;;;;;21.07;88.03;101149.88;5071531;28;20072;-70
2022/08/04 00:29:26;;;;;;;11.57;5.75;;;;;;;21.02;87.86;101147.13;5071597;28;20028;-70
2022/08/04 00:31:56;;;;;;;12.55;6.22;;;;;;;20.97;87.09;101142.47;5071406;28;20117;-70
2022/08/04 00:34:30;;;;;;;13.50;6.50;;;;;;;20.99;87.66;101143.03;5069825;28;20438;-70
2022/08/04 00:36:57;;;;;;;11.50;6.88;;;;;;;20.95;87.96;101141.91;5071297;28;20085;-70
2022/08/04 00:39:23;;;;;;;12.43;6.65;;;;;;;20.88;87.32;101132.34;5071379;28;20028;-70
2022/08/04 00:42:14;;;;;;;12.55;8.10;;;;;;;20.90;86.89;101136.44;5071354;28;20518;-70
2022/08/04 00:45:03;;;;;;;9.75;6.07;;;;;;;20.86;88.03;101132.63;5071208;28;20035;-70
2022/08/04 00:48:02;;;;;;;10.52;5.50;;;;;;;20.82;87.67;101133.38;5071277;28;20494;-70
2022/08/04 00:50:33;;;;;;;10.85;6.30;;;;;;;20.74;87.85;101127.34;5071217;28;20472;-70
2022/08/04 00:53:06;;;;;;;12.13;6.47;;;;;;;20.71;87.93;101129.78;5071164;28;20574;-70
2022/08/04 00:55:46;;;;;;;12.45;6.10;;;;;;;20.64;87.91;101121.03;5071067;28;20064;-70
2022/08/04 00:58:25;;;;;;;13.82;7.68;;;;;;;20.58;87.94;101118.28;5071009;28;20047;-70
2022/08/04 01:01:13;;;;;;;13.55;6.35;;;;;;;20.63;88.98;101127.53;5070870;28;20036;-70
2022/08/04 01:04:00;;;;;;;13.93;6.53;;;;;;;20.60;87.88;101128.88;5070850;28;20467;-70
2022/08/04 01:06:54;;;;;;;13.32;7.63;;;;;;;20.51;87.57;101122.22;5069466;28;20390;-70
2022/08/04 01:09:22;;;;;;;15.40;7.50;;;;;;;20.50;87.56;101116.00;5070956;28;20502;-70
2022/08/04 01:12:11;;;;;;;15.02;7.45;;;;;;;20.47;88.01;101113.81;5070399;28;20536;-70
2022/08/04 01:14:50;;;;;;;17.63;8.85;;;;;;;20.46;88.31;101114.06;5070613;28;20032;-70
2022/08/04 01:17:18;;;;;;;14.32;7.55;;;;;;;20.44;88.24;101114.31;5070582;28;20062;-70
2022/08/04 01:20:07;;;;;;;20.40;7.25;;;;;;;20.43;88.87;101109.97;5070620;28;20055;-70
2022/08/04 01:22:32;;;;;;;12.90;8.02;;;;;;;20.42;88.83;101105.63;5070569;28;20020;-70
2022/08/04 01:25:16;;;;;;;15.30;6.90;;;;;;;20.45;88.70;101105.09;5070494;28;20035;-70
2022/08/04 01:27:48;;;;;;;7.95;5.50;;;;;;;20.46;88.62;101100.50;5070423;28;20283;-68
2022/08/04 01:30:13;;;;;;;13.20;8.38;;;;;;;20.52;88.46;101100.31;5070230;28;20027;-68
2022/08/04 01:33:03;;;;;;;12.30;6.55;;;;;;;20.59;87.57;101102.81;5070123;28;20052;-68
2022/08/04 01:35:49;;;;;;;9.60;5.40;;;;;;;20.64;85.22;101099.34;5070280;28;20024;-68
2022/08/04 01:38:32;;;;;;;13.70;5.60;;;;;;;20.75;84.88;101103.78;5070348;28;20478;-68
2022/08/04 01:41:08;;;;;;;10.60;5.50;;;;;;;20.85;83.04;101097.63;5070052;28;20032;-68
2022/08/04 01:43:40;;;;;;;11.18;5.32;;;;;;;20.92;82.03;101092.81;5070150;28;20032;-68
2022/08/04 01:46:05;;;;;;;9.30;5.40;;;;;;;21.01;81.12;101096.66;5070031;28;20024;-68
2022/08/04 01:48:33;;;;;;;9.75;5.70;;;;;;;21.07;80.71;101090.22;5070036;28;20032;-68
2022/08/04 01:51:04;;;;;;;9.38;4.85;;;;;;;21.14;80.44;101095.38;5069997;28;20031;-68
2022/08/04 01:53:31;;;;;;;9.10;5.70;;;;;;;21.20;79.85;101091.66;5069793;28;20032;-68
2022/08/04 01:55:59;;;;;;;10.80;4.80;;;;;;;21.21;79.52;101088.66;5069802;28;20022;-69
2022/08/04 01:58:28;;;;;;;11.15;5.57;;;;;;;21.21;78.95;101085.13;5069718;28;20032;-69
2022/08/04 02:01:05;;;;;;;9.15;4.82;;;;;;;21.29;78.71;101094.69;5069806;28;20468;-68
2022/08/04 02:03:32;;;;;;;10.55;4.38;;;;;;;21.26;78.12;101071.59;5069779;28;20853;-68
2022/08/04 02:06:30;;;;;;;10.60;4.95;;;;;;;21.33;78.72;101088.47;5069599;28;20080;-68
2022/08/04 02:09:02;;;;;;;8.32;5.13;;;;;;;21.36;78.05;101082.50;5069622;28;20387;-68
2022/08/04 02:11:29;;;;;;;7.53;4.88;;;;;;;21.37;77.26;101080.59;5070568;28;20024;-68
2022/08/04 02:14:00;;;;;;;7.15;4.40;;;;;;;21.40;78.59;101072.78;5069670;28;20942;-68
2022/08/04 02:16:38;;;;;;;9.60;5.43;;;;;;;21.38;79.65;101080.38;5068104;28;20075;-68
2022/08/04 02:19:33;;;;;;;15.05;5.45;;;;;;;21.38;78.61;101071.44;5069650;28;20089;-68
2022/08/04 02:22:15;;;;;;;10.00;4.35;;;;;;;21.34;79.43;101065.66;5057164;28;20459;-68
2022/08/04 02:24:55;;;;;;;8.10;4.40;;;;;;;21.33;78.06;101066.75;5068947;28;20024;-68
2022/08/04 02:27:31;;;;;;;11.90;5.43;;;;;;;21.33;77.80;101065.94;5069352;28;20033;-68
2022/08/04 02:30:02;;;;;;;10.95;3.88;;;;;;;21.33;77.72;101063.25;5069276;28;20028;-68
2022/08/04 02:32:29;;;;;;;10.48;4.68;;;;;;;21.30;77.56;101055.59;5069145;28;20048;-68
2022/08/04 02:35:13;;;;;;;8.60;4.28;;;;;;;21.34;77.41;101062.16;5069267;28;20415;-68
2022/08/04 02:37:46;;;;;;;9.07;4.53;;;;;;;21.32;76.75;101056.97;5069266;28;20039;-68
2022/08/04 02:40:11;;;;;;;11.85;4.10;;;;;;;21.35;76.81;101053.75;5069286;28;20025;-68
2022/08/04 02:42:37;;;;;;;9.02;4.25;;;;;;;21.34;77.57;101059.44;5069204;28;20028;-68
2022/08/04 02:45:05;;;;;;;7.55;4.65;;;;;;;21.30;78.99;101052.88;5069303;28;20024;-68
2022/08/04 02:47:32;;;;;;;12.10;4.22;;;;;;;21.26;78.88;101057.22;5069152;28;20039;-68
2022/08/04 02:49:58;;;;;;;9.98;4.60;;;;;;;21.21;78.86;101047.97;5069205;28;20107;-69
2022/08/04 02:52:24;;;;;;;8.35;4.47;;;;;;;21.13;78.45;101036.81;5067843;28;20506;-68
2022/08/04 02:54:53;;;;;;;11.05;3.95;;;;;;;21.15;77.99;101046.31;5069108;28;20028;-68
2022/08/04 02:57:22;;;;;;;9.25;3.95;;;;;;;21.20;77.79;101049.06;5069102;28;20033;-68
2022/08/04 02:59:59;;;;;;;12.43;4.03;;;;;;;21.18;77.35;101045.78;5068964;28;20031;-68
2022/08/04 03:02:51;;;;;;;8.80;4.45;;;;;;;21.21;77.32;101041.72;5068923;28;20024;-68
2022/08/04 03:05:20;;;;;;;11.13;4.57;;;;;;;21.20;77.66;101040.09;5069185;28;20036;-68
2022/08/04 03:07:54;;;;;;;11.68;5.00;;;;;;;21.18;77.26;101029.50;5069146;28;20024;-68
2022/08/04 03:10:36;;;;;;;12.98;4.07;;;;;;;21.19;78.04;101038.44;5067708;28;20032;-68
2022/08/04 03:13:37;;;;;;;25.42;5.65;;;;;;;21.13;78.23;101028.66;5069038;28;20078;-68
2022/08/04 03:16:31;;;;;;;13.25;5.70;;;;;;;21.12;77.95;101038.69;5068535;28;20029;-68
2022/08/04 03:18:59;;;;;;;9.20;4.80;;;;;;;21.10;77.89;101042.75;5068792;28;20078;-68
2022/08/04 03:21:46;;;;;;;8.60;4.22;;;;;;;21.08;78.51;101032.16;5068717;28;20119;-68
2022/08/04 03:24:36;;;;;;;10.80;4.72;;;;;;;21.04;78.61;101035.66;5068899;28;20052;-68
2022/08/04 03:27:33;;;;;;;7.45;4.20;;;;;;;21.00;79.16;101029.94;5068728;28;20043;-68
2022/08/04 03:30:05;;;;;;;9.85;5.40;;;;;;;20.97;79.12;101034.00;5068791;28;20108;-68
2022/08/04 03:32:42;;;;;;;12.25;4.80;;;;;;;20.96;78.24;101026.94;5068446;28;20110;-68
2022/08/04 03:35:50;;;;;;;10.07;4.72;;;;;;;20.98;78.14;101026.66;5070626;28;20085;-68
2022/08/04 03:38:40;;;;;;;10.48;4.55;;;;;;;20.95;77.78;101019.06;5072102;28;20388;-68
2022/08/04 03:41:25;;;;;;;15.48;5.38;;;;;;;20.97;77.66;101019.63;5071122;28;20385;-68
2022/08/04 03:44:09;;;;;;;9.45;4.38;;;;;;;20.99;77.29;101018.28;5072259;28;20609;-68
2022/08/04 03:47:02;;;;;;;11.18;4.80;;;;;;;21.02;77.21;101015.03;5072267;28;20035;-68
2022/08/04 03:49:45;;;;;;;7.90;4.53;;;;;;;21.06;76.57;101019.94;5072315;28;20103;-68
2022/08/04 03:55:52;;;;;;;15.90;5.05;;;;;;;20.87;78.09;101033.94;5072247;28;20106;-68
2022/08/04 03:58:36;;;;;;;14.45;5.10;;;;;;;20.68;79.59;101035.44;5072270;28;20069;-68
2022/08/04 04:01:29;;;;;;;9.95;5.40;;;;;;;20.50;80.25;101025.75;5072138;28;20027;-68
2022/08/04 04:04:31;;;;;;;12.23;5.68;;;;;;;20.31;80.80;101015.31;5072002;28;20032;-68
2022/08/04 04:07:41;;;;;;;20.27;4.90;;;;;;;20.22;81.20;101005.19;5072023;28;20024;-68
2022/08/04 04:10:30;;;;;;;11.10;4.60;;;;;;;20.28;79.96;101006.91;5047656;28;20044;-68
2022/08/04 04:13:17;;;;;;;11.85;5.15;;;;;;;20.36;80.43;101031.63;5071960;28;20024;-68
2022/08/04 04:15:57;;;;;;;13.68;4.93;;;;;;;20.33;80.68;101044.84;5071576;28;20063;-68
2022/08/04 04:18:41;;;;;;;11.63;4.68;;;;;;;20.33;80.29;101055.69;5071884;28;20035;-69
2022/08/04 04:21:56;;;;;;;12.38;5.47;;;;;;;20.30;80.59;101059.75;5071919;28;20114;-69
2022/08/04 04:24:40;;;;;;;11.13;5.32;;;;;;;20.30;81.51;101061.63;5071754;28;20039;-69
2022/08/04 04:27:11;;;;;;;13.30;5.53;;;;;;;20.30;81.58;101054.31;5071590;28;20036;-70
2022/08/04 04:29:58;;;;;;;19.75;6.80;;;;;;;20.30;81.79;101053.47;5071669;28;20032;-70
2022/08/04 04:32:39;;;;;;;15.55;5.78;;;;;;;20.30;82.67;101048.91;5070925;28;20472;-70
2022/08/04 04:35:42;;;;;;;11.45;4.47;;;;;;;20.33;82.69;101069.22;5071925;28;20036;-70
2022/08/04 04:38:16;;;;;;;10.48;5.25;;;;;;;20.33;81.92;101067.34;5071360;28;20081;-70
2022/08/04 04:41:11;;;;;;;11.23;4.38;;;;;;;20.38;82.42;101071.97;5071269;28;20037;-70
2022/08/04 04:44:00;;;;;;;9.52;4.95;;;;;;;20.45;80.98;101078.00;5071448;28;20495;-70
2022/08/04 04:46:36;;;;;;;11.93;5.18;;;;;;;20.57;80.35;101069.75;5070539;28;20032;-69
2022/08/04 04:49:07;;;;;;;9.98;4.82;;;;;;;20.76;79.81;101068.28;5071285;28;20051;-69
2022/08/04 04:52:25;;;;;;;12.93;4.95;;;;;;;21.23;78.52;101072.13;5071110;28;20040;-69
2022/08/04 04:55:14;;;;;;;11.73;5.25;;;;;;;21.41;76.96;101079.03;4989959;28;20030;-69
2022/08/04 04:57:41;;;;;;;11.95;4.90;;;;;;;21.38;80.33;101071.44;5008176;28;20045;-69
2022/08/04 05:00:09;;;;;;;12.98;5.07;;;;;;;21.40;80.13;101071.97;5053644;28;20365;-69
2022/08/04 05:02:59;;;;;;;15.63;5.55;;;;;;;21.40;81.49;101066.53;5070873;28;20058;-70
2022/08/04 05:05:49;;;;;;;13.38;5.28;;;;;;;21.33;81.26;101074.91;5070933;28;20074;-69
2022/08/04 05:08:17;;;;;;;11.73;5.50;;;;;;;21.30;83.34;101074.59;5070857;28;20047;-70
2022/08/04 05:10:59;;;;;;;14.63;5.18;;;;;;;21.34;84.52;101084.66;5070893;28;20024;-69
2022/08/04 05:13:47;;;;;;;12.65;4.88;;;;;;;21.39;84.01;101084.72;5070685;28;20043;-69
2022/08/04 05:16:17;;;;;;;13.32;4.07;;;;;;;21.38;81.91;101085.81;5070362;28;20115;-70
2022/08/04 05:18:58;;;;;;;12.15;4.95;;;;;;;21.38;83.16;101085.00;5070361;28;20035;-70
2022/08/04 05:21:40;;;;;;;14.43;5.18;;;;;;;21.46;82.42;101087.22;5070640;28;20024;-71
2022/08/04 05:24:10;;;;;;;13.25;5.97;;;;;;;21.45;84.33;101097.22;5070436;28;20460;-70
2022/08/04 05:26:46;;;;;;;10.73;5.55;;;;;;;21.43;84.69;101087.72;5070602;28;20066;-70
2022/08/04 05:29:22;;;;;;;19.55;6.57;;;;;;;21.40;83.37;101089.06;5070351;28;20093;-70
2022/08/04 05:31:51;;;;;;;11.10;5.25;;;;;;;21.40;83.41;101086.34;5070256;28;20449;-70
2022/08/04 05:34:22;;;;;;;10.63;4.82;;;;;;;21.40;85.72;101078.22;5069866;28;20040;-71
2022/08/04 05:36:58;;;;;;;13.40;6.55;;;;;;;21.37;83.57;101077.91;5070267;28;20025;-69
2022/08/04 05:39:27;;;;;;;22.10;6.68;;;;;;;21.43;82.99;101088.56;5069964;28;20570;-70
2022/08/04 05:41:55;;;;;;;23.10;7.05;;;;;;;21.53;84.22;101089.69;5069907;28;20112;-69
2022/08/04 05:44:22;;;;;;;25.85;6.30;;;;;;;21.55;85.16;101099.19;5070047;28;20073;-70
2022/08/04 05:46:50;;;;;;;19.23;6.90;;;;;;;21.60;83.95;101092.97;5070096;28;20031;-69
2022/08/04 05:49:16;;;;;;;18.80;6.72;;;;;;;21.61;84.04;101090.00;5070023;28;20036;-70
2022/08/04 05:51:44;;;;;;;11.02;6.50;;;;;;;21.64;81.78;101085.91;5069883;28;20498;-69
2022/08/04 05:54:12;;;;;;;12.73;5.50;;;;;;;21.67;79.86;101083.50;5070000;28;20031;-70
2022/08/04 05:56:38;;;;;;;22.90;7.05;;;;;;;21.66;83.50;101075.63;5069748;28;20039;-70
2022/08/04 05:59:05;;;;;;;19.10;7.38;;;;;;;21.72;83.20;101087.31;5068829;28;20039;-70
2022/08/04 06:01:32;;;;;;;21.90;7.68;;;;;;;21.70;84.26;101076.72;5069772;28;20142;-70
2022/08/04 06:04:00;;;;;;;19.35;9.18;;;;;;;21.69;84.11;101069.66;5069786;28;20480;-70
2022/08/04 06:06:26;;;;;;;16.35;8.13;;;;;;;21.76;81.48;101066.69;5069521;28;20036;-70
2022/08/04 06:08:53;;;;;;;18.33;9.32;;;;;;;21.78;82.85;101065.34;5069484;28;20035;-69
2022/08/04 06:11:20;;;;;;;17.75;9.40;;;;;;;21.89;82.91;101068.91;5069591;28;20028;-71
2022/08/04 06:13:52;;;;;;;15.75;9.15;;;;;;;21.99;83.41;101068.13;5069542;28;20483;-70
2022/08/04 06:16:22;;;;;;;16.02;9.50;;;;;;;22.08;83.78;101061.91;5069559;28;20024;-68
2022/08/04 06:18:49;;;;;;;29.08;11.18;;;;;;;22.10;83.17;101059.72;5069651;28;20115;-69
2022/08/04 06:21:19;;;;;;;19.67;11.40;;;;;;;22.22;82.13;101072.31;5069393;28;20383;-70
2022/08/04 06:23:46;;;;;;;17.38;9.73;;;;;;;22.27;82.86;101069.59;5069293;28;20024;-70
2022/08/04 06:26:18;;;;;;;18.70;10.52;;;;;;;22.32;83.72;101069.56;5069512;28;20047;-69
2022/08/04 06:28:46;;;;;;;17.98;11.65;;;;;;;22.40;82.49;101074.50;5069615;28;20029;-69
2022/08/04 06:31:13;;;;;;;17.75;10.73;;;;;;;22.51;82.25;101075.31;5069207;28;20025;-69
2022/08/04 06:33:39;;;;;;;16.25;9.65;;;;;;;22.57;81.54;101063.34;5069423;28;20028;-69
2022/08/04 06:36:06;;;;;;;24.58;9.88;;;;;;;22.72;81.39;101071.50;5068727;28;20041;-69
2022/08/04 06:38:34;;;;;;;22.75;8.95;;;;;;;22.84;81.06;101062.25;5068724;28;20035;-69
2022/08/04 06:41:02;;;;;;;15.20;9.18;;;;;;;22.90;81.54;101058.44;5068727;28;20039;-69
2022/08/04 06:43:30;;;;;;;16.20;9.40;;;;;;;23.04;79.79;101069.59;5069199;28;20044;-69
2022/08/04 06:45:58;;;;;;;19.23;9.88;;;;;;;23.11;78.79;101079.13;5069171;28;20517;-70
2022/08/04 06:48:25;;;;;;;17.88;9.30;;;;;;;23.21;77.95;101077.44;5069158;28;20025;-66
2022/08/04 06:50:52;;;;;;;22.70;8.88;;;;;;;23.31;76.82;101080.16;5061575;28;20040;-68
2022/08/04 06:53:18;;;;;;;17.45;8.30;;;;;;;23.43;77.04;101083.38;5064679;28;20028;-72
2022/08/04 06:55:45;;;;;;;16.15;8.38;;;;;;;23.59;76.81;101090.41;5064509;28;20070;-70
2022/08/04 06:58:12;;;;;;;17.05;9.30;;;;;;;23.71;75.19;101092.81;5064680;28;20028;-68
2022/08/04 07:00:40;;;;;;;17.92;7.43;;;;;;;23.79;71.30;101088.72;5064536;28;20024;-69
2022/08/04 07:03:06;;;;;;;13.38;6.95;;;;;;;23.90;70.33;101090.31;5064594;28;20030;-70
2022/08/04 07:05:33;;;;;;;13.85;7.53;;;;;;;24.01;69.94;101091.06;5064817;28;20036;-72
2022/08/04 07:07:59;;;;;;;14.10;7.03;;;;;;;24.12;70.98;101083.66;5064856;28;20087;-69
2022/08/04 07:10:26;;;;;;;11.55;6.72;;;;;;;24.22;71.07;101086.31;5067173;28;20016;-75
2022/08/04 07:12:52;;;;;;;12.25;6.63;;;;;;;24.30;70.40;101082.16;5068709;28;20035;-71
2022/08/04 07:15:19;;;;;;;16.65;7.45;;;;;;;24.37;69.26;101082.69;5084667;28;20036;-71
2022/08/04 07:17:46;;;;;;;15.50;5.88;;;;;;;24.48;68.79;101087.78;5068623;28;20026;-73
2022/08/04 07:20:11;;;;;;;13.75;5.95;;;;;;;24.57;68.68;101087.16;5068183;28;20020;-71
2022/08/04 07:22:39;;;;;;;14.57;7.28;;;;;;;24.60;68.05;101086.59;5067014;28;20031;-71
2022/08/04 07:25:08;;;;;;;13.98;7.40;;;;;;;24.62;67.49;101089.84;5068387;28;20032;-73
2022/08/04 07:27:34;;;;;;;13.52;5.63;;;;;;;24.66;68.58;101085.47;5067361;28;20119;-72
2022/08/04 07:30:00;;;;;;;13.50;4.95;;;;;;;24.71;67.61;101088.16;5067864;28;20103;-70
2022/08/04 07:32:26;;;;;;;10.15;5.00;;;;;;;24.75;68.02;101091.94;5068006;28;20510;-72
2022/08/04 07:34:53;;;;;;;14.60;6.03;;;;;;;24.79;67.87;101087.53;5070322;28;20490;-72
2022/08/04 07:37:18;;;;;;;15.50;6.50;;;;;;;24.85;66.84;101099.22;5072311;28;20035;-72
2022/08/04 07:39:44;;;;;;;14.02;6.50;;;;;;;24.85;66.41;101097.31;5072104;28;20036;-73
2022/08/04 07:42:10;;;;;;;15.95;6.43;;;;;;;24.85;66.72;101096.50;5072427;28;20032;-70
2022/08/04 07:44:36;;;;;;;14.30;7.05;;;;;;;24.87;67.57;101102.47;5071836;28;20033;-70
2022/08/04 07:47:05;;;;;;;17.83;7.93;;;;;;;24.84;68.08;101103.88;5072409;28;20391;-70
2022/08/04 07:49:30;;;;;;;14.10;7.35;;;;;;;24.82;68.80;101103.34;5072033;28;20030;-71
2022/08/04 07:51:56;;;;;;;16.80;7.88;;;;;;;24.84;69.53;101109.31;5072218;28;20032;-70
2022/08/04 07:54:23;;;;;;;14.25;6.32;;;;;;;24.89;70.34;101100.28;5072120;28;20058;-71
2022/08/04 07:56:50;;;;;;;17.40;7.57;;;;;;;24.99;70.70;101102.91;5072038;28;20040;-70
2022/08/04 07:59:16;;;;;;;14.45;7.50;;;;;;;25.05;70.96;101100.97;5071830;28;20059;-70
2022/08/04 08:01:42;;;;;;;16.58;7.53;;;;;;;25.05;70.27;101096.31;5072282;28;20032;-70
2022/08/04 08:04:10;;;;;;;18.30;9.07;;;;;;;25.17;72.32;101098.66;5071956;28;20024;-70
2022/08/04 08:06:37;;;;;;;22.65;12.18;;;;;;;25.24;73.27;101098.34;5071651;28;20452;-70
2022/08/04 08:09:14;;;;;;;15.40;9.77;;;;;;;25.34;71.93;101096.31;5072009;28;20502;-70
2022/08/04 08:11:45;;;;;;;14.57;7.20;;;;;;;25.57;70.35;101096.56;5071855;28;20237;-70
2022/08/04 08:14:12;;;;;;;16.55;7.93;;;;;;;25.74;67.16;101104.31;5071799;28;20032;-70
2022/08/04 08:16:37;;;;;;;16.50;8.65;;;;;;;26.04;68.54;101100.38;5071667;28;20032;-71
2022/08/04 08:19:03;;;;;;;17.20;7.22;;;;;;;27.08;62.36;101096.53;5071533;28;20567;-71
2022/08/04 08:21:29;;;;;;;17.27;8.07;;;;;;;29.14;58.07;101110.13;5070723;28;20029;-70
2022/08/04 08:23:55;;;;;;;16.58;8.07;;;;;;;30.85;52.62;101107.50;5071737;28;20536;-70
2022/08/04 08:26:21;;;;;;;20.17;9.73;;;;;;;32.22;49.27;101115.41;5071577;28;20023;-67
2022/08/04 08:28:46;;;;;;;14.88;7.95;;;;;;;33.36;44.53;101118.69;5071579;28;20036;-67
2022/08/04 08:31:12;;;;;;;16.52;8.32;;;;;;;34.44;42.17;101119.22;5071482;28;20036;-67
2022/08/04 08:33:38;;;;;;;15.52;7.25;;;;;;;35.14;41.13;101118.75;5071534;28;20028;-67
2022/08/04 08:36:12;;;;;;;13.82;7.03;;;;;;;35.08;41.75;101118.22;5071275;28;20189;-67
2022/08/04 08:38:59;;;;;;;14.32;8.30;;;;;;;34.71;44.31;101125.91;5071385;28;20394;-68
2022/08/04 08:42:01;;;;;;;14.35;7.07;;;;;;;33.85;46.07;101117.84;5070923;28;20059;-67
2022/08/04 08:44:48;;;;;;;13.20;6.63;;;;;;;33.33;47.44;101124.09;5071405;28;20032;-68
2022/08/04 08:47:39;;;;;;;16.88;7.70;;;;;;;33.95;45.47;101116.56;5071146;28;20357;-68
2022/08/04 08:50:40;;;;;;;15.65;7.60;;;;;;;34.30;44.36;101127.94;5069405;28;20128;-68
2022/08/04 08:53:27;;;;;;;14.03;6.33;;;;;;;33.34;43.26;101117.41;5071117;28;20032;-68
2022/08/04 08:56:31;;;;;;;12.90;4.47;;;;;;;32.41;47.09;101133.44;5071201;28;20388;-67
2022/08/04 08:59:22;;;;;;;9.80;4.55;;;;;;;31.23;48.74;101140.59;5071038;28;20049;-68
2022/08/04 09:02:05;;;;;;;12.95;5.18;;;;;;;30.48;49.57;101143.66;5071053;28;20093;-68
2022/08/04 09:04:49;;;;;;;14.13;5.70;;;;;;;29.82;52.90;101143.72;5070969;28;20025;-67
2022/08/04 09:07:46;;;;;;;12.68;5.60;;;;;;;29.33;54.80;101131.88;5070961;28;20029;-68
2022/08/04 09:10:22;;;;;;;13.50;5.15;;;;;;;28.88;55.86;101142.91;5070833;28;20107;-67
2022/08/04 09:13:09;;;;;;;13.75;5.30;;;;;;;28.51;56.01;101150.41;5070866;28;20113;-67
2022/08/04 09:15:51;;;;;;;15.25;5.47;;;;;;;28.33;56.55;101146.66;5070313;28;20028;-68
2022/08/04 09:18:31;;;;;;;8.93;3.80;;;;;;;28.07;55.84;101154.66;5070544;28;20028;-67
2022/08/04 09:21:11;;;;;;;9.00;3.67;;;;;;;27.86;55.06;101162.50;5070628;28;20029;-67
2022/08/04 09:23:47;;;;;;;3.85;2.85;;;;;;;27.82;55.26;101158.72;5067062;28;20721;-67
2022/08/04 09:27:03;;;;;;;8.57;2.97;;;;;;;28.01;57.31;101163.28;5065866;28;20017;-66
2022/08/04 09:29:34;;;;;;;7.28;2.83;;;;;;;28.19;55.75;101162.34;5023462;28;20056;-67
2022/08/04 09:32:31;;;;;;;8.43;3.05;;;;;;;28.24;56.32;101167.72;5023326;28;20105;-66
2022/08/04 09:35:10;;;;;;;7.18;3.10;;;;;;;28.14;56.13;101162.47;5055197;28;20040;-67
2022/08/04 09:37:41;;;;;;;10.73;3.33;;;;;;;28.01;56.40;101169.59;5070254;28;20084;-67
2022/08/04 09:40:18;;;;;;;9.73;3.00;;;;;;;27.86;55.96;101164.44;5070335;28;20127;-67
2022/08/04 09:43:01;;;;;;;10.25;3.72;;;;;;;27.67;56.65;101167.25;5069670;28;20051;-67
2022/08/04 09:45:31;;;;;;;8.43;2.67;;;;;;;27.59;56.44;101168.78;5070071;28;20024;-67
2022/08/04 09:48:11;;;;;;;10.52;3.53;;;;;;;27.61;56.91;101179.41;5069675;28;20028;-67
2022/08/04 09:50:38;;;;;;;6.97;2.55;;;;;;;27.54;57.36;101191.59;5070033;28;20039;-67
2022/08/04 09:53:45;;;;;;;8.82;3.05;;;;;;;27.33;57.32;101182.13;5070013;28;20032;-67
2022/08/04 09:56:19;;;;;;;12.82;2.60;;;;;;;27.06;58.29;101186.41;5069630;28;20086;-67
2022/08/04 09:58:57;;;;;;;7.63;2.53;;;;;;;26.83;56.83;101201.03;5069843;28;20568;-67
2022/08/04 10:01:26;;;;;;;6.55;2.60;;;;;;;26.64;57.94;101203.75;5069989;28;20394;-68
2022/08/04 10:03:56;;;;;;;6.15;2.58;;;;;;;26.45;59.40;101206.47;5069917;28;20028;-67
2022/08/04 10:06:39;;;;;;;5.15;2.38;;;;;;;26.34;58.87;101202.25;5069796;28;20025;-67
2022/08/04 10:09:04;;;;;;;7.25;2.40;;;;;;;26.22;60.04;101211.66;5069893;28;20032;-67
2022/08/04 10:11:44;;;;;;;7.23;1.97;;;;;;;26.11;60.55;101217.56;5069523;28;20039;-67
2022/08/04 10:14:17;;;;;;;10.52;3.40;;;;;;;25.97;61.38;101221.03;5069590;28;20035;-67
2022/08/04 10:17:22;;;;;;;6.95;2.15;;;;;;;25.87;59.29;101234.00;5069509;28;20111;-67
2022/08/04 10:19:59;;;;;;;11.88;2.50;;;;;;;25.72;59.40;101233.00;5069701;28;20048;-67
2022/08/04 10:22:31;;;;;;;14.10;3.35;;;;;;;25.63;60.12;101229.28;5069505;28;20028;-66
2022/08/04 10:25:30;;;;;;;23.45;4.90;;;;;;;25.55;61.11;101221.72;5069523;28;20020;-67
2022/08/04 10:28:18;;;;;;;12.55;3.55;;;;;;;25.44;63.37;101228.38;5069240;28;20078;-67
2022/08/04 10:30:50;;;;;;;9.68;2.20;;;;;;;25.28;63.72;101244.06;5069396;28;20361;-67
2022/08/04 10:33:26;;;;;;;9.32;3.00;;;;;;;25.16;63.93;101284.59;5067760;28;20044;-66
2022/08/04 10:36:05;;;;;;;5.28;2.30;;;;;;;25.02;64.04;101325.31;5069180;28;20114;-67
2022/08/04 10:38:36;;;;;;;5.93;2.20;;;;;;;24.88;64.90;101336.03;5069273;28;20020;-67
2022/08/04 10:41:17;;;;;;;7.70;2.00;;;;;;;24.74;69.13;101324.94;5069283;28;20444;-67
2022/08/04 10:43:59;;;;;;;15.20;4.67;;;;;;;24.38;73.73;101303.22;5068326;28;20107;-67
2022/08/04 10:46:31;;;;;;;10.02;2.95;;;;;;;24.08;75.44;101286.94;5068896;28;20051;-66
2022/08/04 10:49:21;;;;;;;8.27;2.67;;;;;;;23.86;75.15;101298.19;5066632;28;20035;-67
2022/08/04 10:52:16;;;;;;;10.05;3.22;;;;;;;23.65;79.62;101286.47;5067696;28;20032;-66
2022/08/04 10:54:59;;;;;;;6.70;2.85;;;;;;;23.52;79.03;101257.88;5058360;28;20079;-66
2022/08/04 10:57:39;;;;;;;11.10;3.75;;;;;;;23.37;80.49;101242.34;5068876;28;20024;-66
2022/08/04 11:00:15;;;;;;;12.23;3.67;;;;;;;23.34;82.35;101237.47;5068551;28;20089;-67
2022/08/04 11:03:18;;;;;;;8.90;3.03;;;;;;;23.32;82.37;101221.44;5069010;28;20387;-66
2022/08/04 11:06:04;;;;;;;7.50;3.25;;;;;;;23.15;84.98;101199.91;5069012;28;20043;-67
2022/08/04 11:08:37;;;;;;;10.07;3.78;;;;;;;23.09;86.06;101194.75;5069055;28;20039;-66
2022/08/04 11:11:24;;;;;;;12.10;3.70;;;;;;;23.23;85.55;101214.06;5069130;28;20032;-67
2022/08/04 11:14:02;;;;;;;12.57;3.65;;;;;;;23.50;87.84;101224.66;5068981;28;20032;-67
2022/08/04 11:16:55;;;;;;;8.90;3.85;;;;;;;24.01;85.20;101228.13;5068893;28;20035;-67
2022/08/04 11:19:55;;;;;;;9.02;4.38;;;;;;;24.43;83.96;101221.41;5068809;28;20050;-67
2022/08/04 11:22:21;;;;;;;10.00;4.20;;;;;;;24.38;82.82;101264.22;5037598;28;20139;-67
2022/08/04 11:24:49;;;;;;;9.00;4.60;;;;;;;24.19;83.82;101262.13;5068864;28;20103;-67
2022/08/04 11:27:41;;;;;;;9.65;4.38;;;;;;;24.05;82.72;101267.34;5068489;28;20320;-67
2022/08/04 11:30:09;;;;;;;14.25;4.50;;;;;;;23.93;86.26;101261.38;5068367;28;20442;-67
2022/08/04 11:32:57;;;;;;;15.00;5.03;;;;;;;23.81;87.35;101250.78;5068570;28;20487;-67
2022/08/04 11:35:37;;;;;;;7.57;4.28;;;;;;;23.68;84.90;101245.06;5068643;28;20037;-67
2022/08/04 11:38:26;;;;;;;11.10;4.50;;;;;;;23.60;84.72;101236.34;5068716;28;20109;-67
2022/08/04 11:40:57;;;;;;;17.83;4.15;;;;;;;23.63;86.25;101238.53;5068517;28;20095;-67
2022/08/04 11:43:34;;;;;;;11.40;5.03;;;;;;;23.86;85.43;101222.72;5068525;28;20111;-67
2022/08/04 11:46:05;;;;;;;14.02;5.20;;;;;;;24.26;84.20;101223.66;5068636;28;20028;-67
2022/08/04 11:48:49;;;;;;;15.35;6.78;;;;;;;24.53;80.65;101236.13;5068686;28;20036;-67
2022/08/04 11:51:18;;;;;;;9.45;5.10;;;;;;;24.61;80.47;101238.25;5068741;28;20032;-67
2022/08/04 11:53:43;;;;;;;11.80;5.00;;;;;;;24.78;77.61;101232.41;5068467;28;20028;-67
2022/08/04 11:56:14;;;;;;;8.13;3.25;;;;;;;24.88;75.29;101219.50;5070739;28;20040;-67
2022/08/04 11:58:40;;;;;;;6.28;3.58;;;;;;;25.02;72.19;101225.16;5071888;28;20024;-67
2022/08/04 12:01:23;;;;;;;6.80;3.50;;;;;;;25.21;72.46;101233.50;5072040;28;20033;-67
2022/08/04 12:04:00;;;;;;;5.38;3.50;;;;;;;25.38;70.78;101227.59;5071933;28;20491;-67
2022/08/04 12:06:54;;;;;;;11.95;3.53;;;;;;;25.39;73.12;101226.53;5071877;28;20052;-67